sensor_id;sensor_type;location;lat;lon;timestamp;temperature;humidity
24158;DHT22;12316;50.904;4.200;2024-03-02T00:01:12;7.40;99.90
24158;DHT22;12316;50.904;4.200;2024-03-02T00:03:38;7.50;99.90
24158;DHT22;12316;50.904;4.200;2024-03-02T00:06:04;7.50;99.90
24158;DHT22;12316;50.904;4.200;2024-03-02T00:08:30;7.50;99.90
24158;DHT22;12316;50.904;4.200;2024-03-02T00:10:58;7.60;99.90
24158;DHT22;12316;50.904;4.200;2024-03-02T00:13:24;7.40;99.90
24158;DHT22;12316;50.904;4.200;2024-03-02T00:15:54;7.40;99.90
24158;DHT22;12316;50.904;4.200;2024-03-02T00:18:24;7.40;99.90
24158;DHT22;12316;50.904;4.200;2024-03-02T00:20:56;7.40;99.90
24158;DHT22;12316;50.904;4.200;2024-03-02T00:23:22;7.40;99.90
24158;DHT22;12316;50.904;4.200;2024-03-02T00:25:53;7.40;99.90
24158;DHT22;12316;50.904;4.200;2024-03-02T00:28:24;7.40;99.90
24158;DHT22;12316;50.904;4.200;2024-03-02T00:33:23;7.60;99.90
24158;DHT22;12316;50.904;4.200;2024-03-02T00:35:50;7.60;99.90
24158;DHT22;12316;50.904;4.200;2024-03-02T00:38:16;7.60;99.90
24158;DHT22;12316;50.904;4.200;2024-03-02T00:40:42;7.50;99.90
24158;DHT22;12316;50.904;4.200;2024-03-02T00:46:13;7.60;99.90
24158;DHT22;12316;50.904;4.200;2024-03-02T00:48:41;7.60;99.90
24158;DHT22;12316;50.904;4.200;2024-03-02T00:51:11;7.60;99.90
24158;DHT22;12316;50.904;4.200;2024-03-02T00:53:38;7.70;99.90
24158;DHT22;12316;50.904;4.200;2024-03-02T00:56:04;7.60;99.90
24158;DHT22;12316;50.904;4.200;2024-03-02T00:58:34;7.60;99.90
24158;DHT22;12316;50.904;4.200;2024-03-02T01:00:59;7.50;99.90
24158;DHT22;12316;50.904;4.200;2024-03-02T01:03:25;7.60;99.90
24158;DHT22;12316;50.904;4.200;2024-03-02T01:05:51;7.60;99.90
24158;DHT22;12316;50.904;4.200;2024-03-02T01:08:17;7.50;99.90
24158;DHT22;12316;50.904;4.200;2024-03-02T01:10:42;7.50;99.90
24158;DHT22;12316;50.904;4.200;2024-03-02T01:13:09;7.50;99.90
24158;DHT22;12316;50.904;4.200;2024-03-02T01:15:35;7.50;99.90
24158;DHT22;12316;50.904;4.200;2024-03-02T01:18:00;7.60;99.90
24158;DHT22;12316;50.904;4.200;2024-03-02T01:20:26;7.60;99.90
24158;DHT22;12316;50.904;4.200;2024-03-02T01:22:52;7.70;99.90
24158;DHT22;12316;50.904;4.200;2024-03-02T01:25:18;7.80;99.90
24158;DHT22;12316;50.904;4.200;2024-03-02T01:27:44;7.80;99.90
24158;DHT22;12316;50.904;4.200;2024-03-02T01:30:10;7.70;99.90
24158;DHT22;12316;50.904;4.200;2024-03-02T01:32:38;7.70;99.90
24158;DHT22;12316;50.904;4.200;2024-03-02T01:35:04;7.60;99.90
24158;DHT22;12316;50.904;4.200;2024-03-02T01:37:30;7.50;99.90
24158;DHT22;12316;50.904;4.200;2024-03-02T01:39:56;7.60;99.90
24158;DHT22;12316;50.904;4.200;2024-03-02T01:42:21;7.80;99.90
24158;DHT22;12316;50.904;4.200;2024-03-02T01:44:47;7.70;99.90
24158;DHT22;12316;50.904;4.200;2024-03-02T01:47:13;7.80;99.90
24158;DHT22;12316;50.904;4.200;2024-03-02T01:49:39;7.70;99.90
24158;DHT22;12316;50.904;4.200;2024-03-02T01:52:06;7.70;99.90
24158;DHT22;12316;50.904;4.200;2024-03-02T01:54:32;7.80;99.90
24158;DHT22;12316;50.904;4.200;2024-03-02T01:56:58;7.90;99.90
24158;DHT22;12316;50.904;4.200;2024-03-02T01:59:24;7.70;99.90
24158;DHT22;12316;50.904;4.200;2024-03-02T02:01:50;7.80;99.90
24158;DHT22;12316;50.904;4.200;2024-03-02T02:04:15;7.70;99.90
24158;DHT22;12316;50.904;4.200;2024-03-02T02:06:41;7.70;99.90
24158;DHT22;12316;50.904;4.200;2024-03-02T02:09:09;7.60;99.90
24158;DHT22;12316;50.904;4.200;2024-03-02T02:11:35;7.70;99.90
24158;DHT22;12316;50.904;4.200;2024-03-02T02:14:01;7.70;99.90
24158;DHT22;12316;50.904;4.200;2024-03-02T02:16:27;7.80;99.90
24158;DHT22;12316;50.904;4.200;2024-03-02T02:18:52;7.90;99.90
24158;DHT22;12316;50.904;4.200;2024-03-02T02:21:22;8.00;99.90
24158;DHT22;12316;50.904;4.200;2024-03-02T02:23:48;8.00;99.90
24158;DHT22;12316;50.904;4.200;2024-03-02T02:26:14;8.10;99.90
24158;DHT22;12316;50.904;4.200;2024-03-02T02:28:39;8.00;99.90
24158;DHT22;12316;50.904;4.200;2024-03-02T02:31:15;8.00;99.90
24158;DHT22;12316;50.904;4.200;2024-03-02T02:33:41;8.00;99.90
24158;DHT22;12316;50.904;4.200;2024-03-02T02:36:07;7.90;99.90
24158;DHT22;12316;50.904;4.200;2024-03-02T02:38:40;7.80;99.90
24158;DHT22;12316;50.904;4.200;2024-03-02T02:41:07;7.80;99.90
24158;DHT22;12316;50.904;4.200;2024-03-02T02:43:33;7.90;99.90
24158;DHT22;12316;50.904;4.200;2024-03-02T02:45:59;8.00;99.90
24158;DHT22;12316;50.904;4.200;2024-03-02T02:48:24;7.90;99.90
24158;DHT22;12316;50.904;4.200;2024-03-02T02:50:50;7.90;99.90
24158;DHT22;12316;50.904;4.200;2024-03-02T02:53:16;7.70;99.90
24158;DHT22;12316;50.904;4.200;2024-03-02T02:55:42;7.70;99.90
24158;DHT22;12316;50.904;4.200;2024-03-02T02:58:09;7.80;99.90
24158;DHT22;12316;50.904;4.200;2024-03-02T03:00:35;7.80;99.90
24158;DHT22;12316;50.904;4.200;2024-03-02T03:03:01;7.70;99.90
24158;DHT22;12316;50.904;4.200;2024-03-02T03:05:27;7.70;99.90
24158;DHT22;12316;50.904;4.200;2024-03-02T03:07:53;7.60;99.90
24158;DHT22;12316;50.904;4.200;2024-03-02T03:10:19;7.80;99.90
24158;DHT22;12316;50.904;4.200;2024-03-02T03:12:47;7.80;99.90
24158;DHT22;12316;50.904;4.200;2024-03-02T03:15:13;7.90;99.90
24158;DHT22;12316;50.904;4.200;2024-03-02T03:17:39;7.90;99.90
24158;DHT22;12316;50.904;4.200;2024-03-02T03:20:06;8.00;99.90
24158;DHT22;12316;50.904;4.200;2024-03-02T03:22:35;7.90;99.90
24158;DHT22;12316;50.904;4.200;2024-03-02T03:25:01;7.90;99.90
24158;DHT22;12316;50.904;4.200;2024-03-02T03:27:27;7.80;99.90
24158;DHT22;12316;50.904;4.200;2024-03-02T03:29:52;7.70;99.90
24158;DHT22;12316;50.904;4.200;2024-03-02T03:32:19;7.70;99.90
24158;DHT22;12316;50.904;4.200;2024-03-02T03:34:45;7.90;99.90
24158;DHT22;12316;50.904;4.200;2024-03-02T03:37:11;7.80;99.90
24158;DHT22;12316;50.904;4.200;2024-03-02T03:39:36;7.80;99.90
24158;DHT22;12316;50.904;4.200;2024-03-02T03:42:03;7.80;99.90
24158;DHT22;12316;50.904;4.200;2024-03-02T03:44:28;7.70;99.90
24158;DHT22;12316;50.904;4.200;2024-03-02T03:46:54;7.70;99.90
24158;DHT22;12316;50.904;4.200;2024-03-02T03:49:20;7.70;99.90
24158;DHT22;12316;50.904;4.200;2024-03-02T03:51:46;7.60;99.90
24158;DHT22;12316;50.904;4.200;2024-03-02T03:54:11;7.50;99.90
24158;DHT22;12316;50.904;4.200;2024-03-02T03:56:37;7.70;99.90
24158;DHT22;12316;50.904;4.200;2024-03-02T03:59:03;7.70;99.90
24158;DHT22;12316;50.904;4.200;2024-03-02T04:01:30;7.70;99.90
24158;DHT22;12316;50.904;4.200;2024-03-02T04:03:55;7.80;99.90
24158;DHT22;12316;50.904;4.200;2024-03-02T04:06:21;7.80;99.90
24158;DHT22;12316;50.904;4.200;2024-03-02T04:08:47;7.90;99.90
24158;DHT22;12316;50.904;4.200;2024-03-02T04:11:12;7.80;99.90
24158;DHT22;12316;50.904;4.200;2024-03-02T04:13:38;7.70;99.90
24158;DHT22;12316;50.904;4.200;2024-03-02T04:16:04;7.70;99.90
24158;DHT22;12316;50.904;4.200;2024-03-02T04:18:30;7.80;99.90
24158;DHT22;12316;50.904;4.200;2024-03-02T04:20:57;8.00;99.90
24158;DHT22;12316;50.904;4.200;2024-03-02T04:23:27;7.90;99.90
24158;DHT22;12316;50.904;4.200;2024-03-02T04:25:53;7.80;99.90
24158;DHT22;12316;50.904;4.200;2024-03-02T04:28:18;7.90;99.90
24158;DHT22;12316;50.904;4.200;2024-03-02T04:30:44;8.10;99.90
24158;DHT22;12316;50.904;4.200;2024-03-02T04:33:09;8.10;99.90
24158;DHT22;12316;50.904;4.200;2024-03-02T04:35:38;7.90;99.90
24158;DHT22;12316;50.904;4.200;2024-03-02T04:38:04;8.00;99.90
24158;DHT22;12316;50.904;4.200;2024-03-02T04:40:30;7.80;99.90
24158;DHT22;12316;50.904;4.200;2024-03-02T04:42:57;7.90;99.90
24158;DHT22;12316;50.904;4.200;2024-03-02T04:45:24;7.80;99.90
24158;DHT22;12316;50.904;4.200;2024-03-02T04:47:50;7.70;99.90
24158;DHT22;12316;50.904;4.200;2024-03-02T04:50:15;7.80;99.90
24158;DHT22;12316;50.904;4.200;2024-03-02T04:52:41;7.70;99.90
24158;DHT22;12316;50.904;4.200;2024-03-02T04:55:07;7.80;99.90
24158;DHT22;12316;50.904;4.200;2024-03-02T04:57:43;7.70;99.90
24158;DHT22;12316;50.904;4.200;2024-03-02T05:00:09;7.60;99.90
24158;DHT22;12316;50.904;4.200;2024-03-02T05:02:35;7.60;99.90
24158;DHT22;12316;50.904;4.200;2024-03-02T05:05:01;7.50;99.90
24158;DHT22;12316;50.904;4.200;2024-03-02T05:07:28;7.40;99.90
24158;DHT22;12316;50.904;4.200;2024-03-02T05:09:53;7.30;99.90
24158;DHT22;12316;50.904;4.200;2024-03-02T05:12:19;7.30;99.90
24158;DHT22;12316;50.904;4.200;2024-03-02T05:15:04;7.10;99.90
24158;DHT22;12316;50.904;4.200;2024-03-02T05:17:29;7.00;99.90
24158;DHT22;12316;50.904;4.200;2024-03-02T05:19:55;7.00;99.90
24158;DHT22;12316;50.904;4.200;2024-03-02T05:22:21;7.00;99.90
24158;DHT22;12316;50.904;4.200;2024-03-02T05:24:46;7.00;99.90
24158;DHT22;12316;50.904;4.200;2024-03-02T05:27:12;7.00;99.90
24158;DHT22;12316;50.904;4.200;2024-03-02T05:29:38;7.00;99.90
24158;DHT22;12316;50.904;4.200;2024-03-02T05:32:03;6.90;99.90
24158;DHT22;12316;50.904;4.200;2024-03-02T05:34:29;6.70;99.90
24158;DHT22;12316;50.904;4.200;2024-03-02T05:36:56;6.60;99.90
24158;DHT22;12316;50.904;4.200;2024-03-02T05:39:23;6.50;99.90
24158;DHT22;12316;50.904;4.200;2024-03-02T05:41:48;6.60;99.90
24158;DHT22;12316;50.904;4.200;2024-03-02T05:44:14;6.50;99.90
24158;DHT22;12316;50.904;4.200;2024-03-02T05:46:41;6.50;99.90
24158;DHT22;12316;50.904;4.200;2024-03-02T05:49:07;6.40;99.90
24158;DHT22;12316;50.904;4.200;2024-03-02T05:51:33;6.40;99.90
24158;DHT22;12316;50.904;4.200;2024-03-02T05:53:59;6.30;99.90
24158;DHT22;12316;50.904;4.200;2024-03-02T05:56:24;6.30;99.90
24158;DHT22;12316;50.904;4.200;2024-03-02T05:58:50;6.40;99.90
24158;DHT22;12316;50.904;4.200;2024-03-02T06:01:34;6.40;99.90
24158;DHT22;12316;50.904;4.200;2024-03-02T06:04:00;6.20;99.90
24158;DHT22;12316;50.904;4.200;2024-03-02T06:06:26;6.40;99.90
24158;DHT22;12316;50.904;4.200;2024-03-02T06:08:54;6.20;99.90
24158;DHT22;12316;50.904;4.200;2024-03-02T06:11:19;6.20;99.90
24158;DHT22;12316;50.904;4.200;2024-03-02T06:13:45;6.10;99.90
24158;DHT22;12316;50.904;4.200;2024-03-02T06:16:11;6.00;99.90
24158;DHT22;12316;50.904;4.200;2024-03-02T06:18:37;5.90;99.90
24158;DHT22;12316;50.904;4.200;2024-03-02T06:21:03;6.00;99.90
24158;DHT22;12316;50.904;4.200;2024-03-02T06:23:29;6.00;99.90
24158;DHT22;12316;50.904;4.200;2024-03-02T06:25:54;6.00;99.90
24158;DHT22;12316;50.904;4.200;2024-03-02T06:28:20;6.00;99.90
24158;DHT22;12316;50.904;4.200;2024-03-02T06:30:46;6.10;99.90
24158;DHT22;12316;50.904;4.200;2024-03-02T06:33:11;6.10;99.90
24158;DHT22;12316;50.904;4.200;2024-03-02T06:35:37;6.00;99.90
24158;DHT22;12316;50.904;4.200;2024-03-02T06:38:03;6.00;99.90
24158;DHT22;12316;50.904;4.200;2024-03-02T06:40:29;6.00;99.90
24158;DHT22;12316;50.904;4.200;2024-03-02T06:42:54;6.00;99.90
24158;DHT22;12316;50.904;4.200;2024-03-02T06:45:20;6.10;99.90
24158;DHT22;12316;50.904;4.200;2024-03-02T06:47:46;6.10;99.90
24158;DHT22;12316;50.904;4.200;2024-03-02T06:50:11;6.10;99.90
24158;DHT22;12316;50.904;4.200;2024-03-02T06:52:37;5.90;99.90
24158;DHT22;12316;50.904;4.200;2024-03-02T06:55:03;5.90;99.90
24158;DHT22;12316;50.904;4.200;2024-03-02T06:57:29;6.00;99.90
24158;DHT22;12316;50.904;4.200;2024-03-02T06:59:55;6.10;99.90
24158;DHT22;12316;50.904;4.200;2024-03-02T07:02:24;6.10;99.90
24158;DHT22;12316;50.904;4.200;2024-03-02T07:04:52;6.10;99.90
24158;DHT22;12316;50.904;4.200;2024-03-02T07:07:18;6.30;99.90
24158;DHT22;12316;50.904;4.200;2024-03-02T07:09:44;6.40;99.90
24158;DHT22;12316;50.904;4.200;2024-03-02T07:12:10;6.30;99.90
24158;DHT22;12316;50.904;4.200;2024-03-02T07:14:36;6.30;99.90
24158;DHT22;12316;50.904;4.200;2024-03-02T07:17:21;6.40;99.90
24158;DHT22;12316;50.904;4.200;2024-03-02T07:19:46;6.30;99.90
24158;DHT22;12316;50.904;4.200;2024-03-02T07:22:12;6.30;99.90
24158;DHT22;12316;50.904;4.200;2024-03-02T07:24:44;6.60;99.90
24158;DHT22;12316;50.904;4.200;2024-03-02T07:27:12;6.50;99.90
24158;DHT22;12316;50.904;4.200;2024-03-02T07:29:38;6.60;99.90
24158;DHT22;12316;50.904;4.200;2024-03-02T07:32:05;6.70;99.90
24158;DHT22;12316;50.904;4.200;2024-03-02T07:34:32;6.50;99.90
24158;DHT22;12316;50.904;4.200;2024-03-02T07:36:57;6.70;99.90
24158;DHT22;12316;50.904;4.200;2024-03-02T07:39:23;6.80;99.90
24158;DHT22;12316;50.904;4.200;2024-03-02T07:41:49;7.00;99.90
24158;DHT22;12316;50.904;4.200;2024-03-02T07:44:15;7.00;99.90
24158;DHT22;12316;50.904;4.200;2024-03-02T07:46:42;7.00;99.90
24158;DHT22;12316;50.904;4.200;2024-03-02T07:49:08;7.00;99.90
24158;DHT22;12316;50.904;4.200;2024-03-02T07:51:34;7.00;99.90
24158;DHT22;12316;50.904;4.200;2024-03-02T07:54:01;7.00;99.90
24158;DHT22;12316;50.904;4.200;2024-03-02T07:56:26;7.00;99.90
24158;DHT22;12316;50.904;4.200;2024-03-02T07:58:52;7.10;99.90
24158;DHT22;12316;50.904;4.200;2024-03-02T08:01:18;7.40;99.90
24158;DHT22;12316;50.904;4.200;2024-03-02T08:03:44;7.50;99.90
24158;DHT22;12316;50.904;4.200;2024-03-02T08:06:18;7.50;99.90
24158;DHT22;12316;50.904;4.200;2024-03-02T08:08:47;7.60;99.90
24158;DHT22;12316;50.904;4.200;2024-03-02T08:11:13;7.60;99.90
24158;DHT22;12316;50.904;4.200;2024-03-02T08:13:39;7.80;99.90
24158;DHT22;12316;50.904;4.200;2024-03-02T08:16:05;7.80;99.90
24158;DHT22;12316;50.904;4.200;2024-03-02T08:18:33;7.80;99.90
24158;DHT22;12316;50.904;4.200;2024-03-02T08:20:59;7.90;99.90
24158;DHT22;12316;50.904;4.200;2024-03-02T08:23:25;8.10;99.90
24158;DHT22;12316;50.904;4.200;2024-03-02T08:25:51;8.10;99.90
24158;DHT22;12316;50.904;4.200;2024-03-02T08:28:17;7.90;99.90
24158;DHT22;12316;50.904;4.200;2024-03-02T08:30:42;8.10;99.90
24158;DHT22;12316;50.904;4.200;2024-03-02T08:33:08;8.20;99.90
24158;DHT22;12316;50.904;4.200;2024-03-02T08:35:34;8.30;99.90
24158;DHT22;12316;50.904;4.200;2024-03-02T08:38:02;8.20;99.90
24158;DHT22;12316;50.904;4.200;2024-03-02T08:40:28;8.20;99.90
24158;DHT22;12316;50.904;4.200;2024-03-02T08:42:54;8.20;99.90
24158;DHT22;12316;50.904;4.200;2024-03-02T08:45:20;8.20;99.90
24158;DHT22;12316;50.904;4.200;2024-03-02T08:47:46;8.40;99.90
24158;DHT22;12316;50.904;4.200;2024-03-02T08:50:12;8.70;99.90
24158;DHT22;12316;50.904;4.200;2024-03-02T08:52:38;8.80;99.90
24158;DHT22;12316;50.904;4.200;2024-03-02T08:55:04;8.90;99.90
24158;DHT22;12316;50.904;4.200;2024-03-02T08:57:30;9.10;99.90
24158;DHT22;12316;50.904;4.200;2024-03-02T08:59:56;9.10;99.90
24158;DHT22;12316;50.904;4.200;2024-03-02T09:02:22;9.10;99.90
24158;DHT22;12316;50.904;4.200;2024-03-02T09:04:49;8.90;99.90
24158;DHT22;12316;50.904;4.200;2024-03-02T09:07:15;8.80;99.90
24158;DHT22;12316;50.904;4.200;2024-03-02T09:09:40;9.00;99.90
24158;DHT22;12316;50.904;4.200;2024-03-02T09:12:07;9.20;99.90
24158;DHT22;12316;50.904;4.200;2024-03-02T09:14:33;9.40;99.90
24158;DHT22;12316;50.904;4.200;2024-03-02T09:16:59;9.40;99.90
24158;DHT22;12316;50.904;4.200;2024-03-02T09:19:24;9.50;99.90
24158;DHT22;12316;50.904;4.200;2024-03-02T09:21:50;9.50;99.90
24158;DHT22;12316;50.904;4.200;2024-03-02T09:24:16;9.70;99.90
24158;DHT22;12316;50.904;4.200;2024-03-02T09:26:41;9.80;99.90
24158;DHT22;12316;50.904;4.200;2024-03-02T09:29:08;9.90;99.90
24158;DHT22;12316;50.904;4.200;2024-03-02T09:31:39;9.90;99.90
24158;DHT22;12316;50.904;4.200;2024-03-02T09:34:06;9.90;99.90
24158;DHT22;12316;50.904;4.200;2024-03-02T09:36:31;10.00;99.90
24158;DHT22;12316;50.904;4.200;2024-03-02T09:38:57;10.20;99.90
24158;DHT22;12316;50.904;4.200;2024-03-02T09:41:23;10.10;99.90
24158;DHT22;12316;50.904;4.200;2024-03-02T09:43:49;10.00;99.90
24158;DHT22;12316;50.904;4.200;2024-03-02T09:46:15;10.30;99.90
24158;DHT22;12316;50.904;4.200;2024-03-02T09:48:41;10.40;99.90
24158;DHT22;12316;50.904;4.200;2024-03-02T09:51:07;10.60;99.90
24158;DHT22;12316;50.904;4.200;2024-03-02T09:53:34;10.70;99.90
24158;DHT22;12316;50.904;4.200;2024-03-02T09:56:00;10.70;99.90
24158;DHT22;12316;50.904;4.200;2024-03-02T09:58:26;10.90;99.90
24158;DHT22;12316;50.904;4.200;2024-03-02T10:00:52;11.00;99.90
24158;DHT22;12316;50.904;4.200;2024-03-02T10:03:18;11.20;99.90
24158;DHT22;12316;50.904;4.200;2024-03-02T10:05:44;11.20;99.90
24158;DHT22;12316;50.904;4.200;2024-03-02T10:08:10;11.20;99.90
24158;DHT22;12316;50.904;4.200;2024-03-02T10:10:39;11.30;99.90
24158;DHT22;12316;50.904;4.200;2024-03-02T10:13:10;11.40;99.90
24158;DHT22;12316;50.904;4.200;2024-03-02T10:15:36;11.50;99.90
24158;DHT22;12316;50.904;4.200;2024-03-02T10:18:09;11.50;99.90
24158;DHT22;12316;50.904;4.200;2024-03-02T10:20:36;11.10;99.90
24158;DHT22;12316;50.904;4.200;2024-03-02T10:23:12;10.90;99.90
24158;DHT22;12316;50.904;4.200;2024-03-02T10:25:39;10.80;99.90
24158;DHT22;12316;50.904;4.200;2024-03-02T10:28:04;10.80;99.90
24158;DHT22;12316;50.904;4.200;2024-03-02T10:30:33;11.20;99.90
24158;DHT22;12316;50.904;4.200;2024-03-02T10:33:03;11.40;99.90
24158;DHT22;12316;50.904;4.200;2024-03-02T10:35:29;11.30;99.90
24158;DHT22;12316;50.904;4.200;2024-03-02T10:37:59;11.50;99.90
24158;DHT22;12316;50.904;4.200;2024-03-02T10:40:27;11.60;99.90
24158;DHT22;12316;50.904;4.200;2024-03-02T10:42:52;11.80;99.90
24158;DHT22;12316;50.904;4.200;2024-03-02T10:45:20;11.90;99.90
24158;DHT22;12316;50.904;4.200;2024-03-02T10:47:48;11.90;99.90
24158;DHT22;12316;50.904;4.200;2024-03-02T10:50:14;12.00;99.90
24158;DHT22;12316;50.904;4.200;2024-03-02T10:52:40;11.90;99.90
24158;DHT22;12316;50.904;4.200;2024-03-02T10:55:06;12.20;99.90
24158;DHT22;12316;50.904;4.200;2024-03-02T10:57:54;12.40;99.90
24158;DHT22;12316;50.904;4.200;2024-03-02T11:00:26;12.50;99.90
24158;DHT22;12316;50.904;4.200;2024-03-02T11:03:04;12.50;99.90
24158;DHT22;12316;50.904;4.200;2024-03-02T11:05:45;12.40;99.90
24158;DHT22;12316;50.904;4.200;2024-03-02T11:08:13;12.00;99.90
24158;DHT22;12316;50.904;4.200;2024-03-02T11:10:51;12.10;99.90
24158;DHT22;12316;50.904;4.200;2024-03-02T11:13:22;12.00;99.90
24158;DHT22;12316;50.904;4.200;2024-03-02T11:15:51;12.20;99.90
24158;DHT22;12316;50.904;4.200;2024-03-02T11:18:18;12.20;99.90
24158;DHT22;12316;50.904;4.200;2024-03-02T11:20:44;12.20;99.90
24158;DHT22;12316;50.904;4.200;2024-03-02T11:23:11;12.20;99.90
24158;DHT22;12316;50.904;4.200;2024-03-02T11:25:38;12.00;99.90
24158;DHT22;12316;50.904;4.200;2024-03-02T11:28:06;12.30;99.90
24158;DHT22;12316;50.904;4.200;2024-03-02T11:33:06;12.40;99.90
24158;DHT22;12316;50.904;4.200;2024-03-02T11:35:41;12.60;99.90
24158;DHT22;12316;50.904;4.200;2024-03-02T11:38:13;12.70;99.90
24158;DHT22;12316;50.904;4.200;2024-03-02T11:40:39;12.50;99.90
24158;DHT22;12316;50.904;4.200;2024-03-02T11:43:06;12.30;99.90
24158;DHT22;12316;50.904;4.200;2024-03-02T11:45:35;12.50;99.90
24158;DHT22;12316;50.904;4.200;2024-03-02T11:48:05;12.80;99.90
24158;DHT22;12316;50.904;4.200;2024-03-02T11:50:35;12.80;99.90
24158;DHT22;12316;50.904;4.200;2024-03-02T11:53:04;12.80;99.90
24158;DHT22;12316;50.904;4.200;2024-03-02T11:55:37;12.40;99.90
24158;DHT22;12316;50.904;4.200;2024-03-02T11:58:08;12.50;99.90
24158;DHT22;12316;50.904;4.200;2024-03-02T12:00:34;12.60;99.90
24158;DHT22;12316;50.904;4.200;2024-03-02T12:03:08;12.80;99.90
24158;DHT22;12316;50.904;4.200;2024-03-02T12:05:35;13.20;99.90
24158;DHT22;12316;50.904;4.200;2024-03-02T12:08:06;13.50;99.90
24158;DHT22;12316;50.904;4.200;2024-03-02T12:10:32;13.90;99.90
24158;DHT22;12316;50.904;4.200;2024-03-02T12:12:59;14.00;99.90
24158;DHT22;12316;50.904;4.200;2024-03-02T12:15:27;13.80;99.90
24158;DHT22;12316;50.904;4.200;2024-03-02T12:17:56;13.60;99.90
24158;DHT22;12316;50.904;4.200;2024-03-02T12:20:23;13.60;99.90
24158;DHT22;12316;50.904;4.200;2024-03-02T12:22:53;13.70;99.90
24158;DHT22;12316;50.904;4.200;2024-03-02T12:25:21;13.80;99.90
24158;DHT22;12316;50.904;4.200;2024-03-02T12:27:47;14.10;99.90
24158;DHT22;12316;50.904;4.200;2024-03-02T12:30:17;14.30;99.90
24158;DHT22;12316;50.904;4.200;2024-03-02T12:32:44;14.30;99.90
24158;DHT22;12316;50.904;4.200;2024-03-02T12:35:10;14.00;99.90
24158;DHT22;12316;50.904;4.200;2024-03-02T12:37:46;14.20;99.90
24158;DHT22;12316;50.904;4.200;2024-03-02T12:40:12;13.90;99.90
24158;DHT22;12316;50.904;4.200;2024-03-02T12:42:39;13.70;99.90
24158;DHT22;12316;50.904;4.200;2024-03-02T12:45:06;13.60;99.90
24158;DHT22;12316;50.904;4.200;2024-03-02T12:47:33;13.30;99.90
24158;DHT22;12316;50.904;4.200;2024-03-02T12:49:59;13.40;99.90
24158;DHT22;12316;50.904;4.200;2024-03-02T12:52:25;13.40;99.90
24158;DHT22;12316;50.904;4.200;2024-03-02T12:54:50;13.50;99.90
24158;DHT22;12316;50.904;4.200;2024-03-02T12:57:18;13.50;99.90
24158;DHT22;12316;50.904;4.200;2024-03-02T12:59:47;13.40;99.90
24158;DHT22;12316;50.904;4.200;2024-03-02T13:02:19;13.50;99.90
24158;DHT22;12316;50.904;4.200;2024-03-02T13:04:53;13.30;99.90
24158;DHT22;12316;50.904;4.200;2024-03-02T13:07:23;13.20;99.90
24158;DHT22;12316;50.904;4.200;2024-03-02T13:09:52;13.20;99.90
24158;DHT22;12316;50.904;4.200;2024-03-02T13:12:21;13.30;99.90
24158;DHT22;12316;50.904;4.200;2024-03-02T13:14:58;13.50;99.90
24158;DHT22;12316;50.904;4.200;2024-03-02T13:17:25;13.60;99.90
24158;DHT22;12316;50.904;4.200;2024-03-02T13:19:59;13.60;99.90
24158;DHT22;12316;50.904;4.200;2024-03-02T13:22:25;13.80;99.90
24158;DHT22;12316;50.904;4.200;2024-03-02T13:24:52;13.80;99.90
24158;DHT22;12316;50.904;4.200;2024-03-02T13:27:18;13.80;99.90
24158;DHT22;12316;50.904;4.200;2024-03-02T13:29:47;14.00;99.90
24158;DHT22;12316;50.904;4.200;2024-03-02T13:32:14;14.00;99.90
24158;DHT22;12316;50.904;4.200;2024-03-02T13:34:39;14.10;99.90
24158;DHT22;12316;50.904;4.200;2024-03-02T13:37:05;13.90;99.90
24158;DHT22;12316;50.904;4.200;2024-03-02T13:39:31;13.80;99.90
24158;DHT22;12316;50.904;4.200;2024-03-02T13:42:00;13.90;99.90
24158;DHT22;12316;50.904;4.200;2024-03-02T13:44:31;13.80;99.90
24158;DHT22;12316;50.904;4.200;2024-03-02T13:46:57;13.70;99.90
24158;DHT22;12316;50.904;4.200;2024-03-02T13:49:23;13.30;99.90
24158;DHT22;12316;50.904;4.200;2024-03-02T13:51:49;13.30;99.90
24158;DHT22;12316;50.904;4.200;2024-03-02T13:54:15;13.50;99.90
24158;DHT22;12316;50.904;4.200;2024-03-02T13:56:41;13.60;99.90
24158;DHT22;12316;50.904;4.200;2024-03-02T13:59:07;13.60;99.90
24158;DHT22;12316;50.904;4.200;2024-03-02T14:01:33;13.40;99.90
24158;DHT22;12316;50.904;4.200;2024-03-02T14:03:59;13.20;99.90
24158;DHT22;12316;50.904;4.200;2024-03-02T14:06:25;13.50;99.90
24158;DHT22;12316;50.904;4.200;2024-03-02T14:08:54;13.70;99.90
24158;DHT22;12316;50.904;4.200;2024-03-02T14:11:20;13.70;99.90
24158;DHT22;12316;50.904;4.200;2024-03-02T14:13:46;13.80;99.90
24158;DHT22;12316;50.904;4.200;2024-03-02T14:16:19;13.90;99.90
24158;DHT22;12316;50.904;4.200;2024-03-02T14:18:46;14.00;99.90
24158;DHT22;12316;50.904;4.200;2024-03-02T14:21:12;14.10;99.90
24158;DHT22;12316;50.904;4.200;2024-03-02T14:23:37;14.10;99.90
24158;DHT22;12316;50.904;4.200;2024-03-02T14:26:03;14.20;99.90
24158;DHT22;12316;50.904;4.200;2024-03-02T14:28:28;14.40;99.90
24158;DHT22;12316;50.904;4.200;2024-03-02T14:30:54;14.50;99.90
24158;DHT22;12316;50.904;4.200;2024-03-02T14:33:20;14.30;99.90
24158;DHT22;12316;50.904;4.200;2024-03-02T14:35:46;14.30;99.90
24158;DHT22;12316;50.904;4.200;2024-03-02T14:38:12;14.20;99.90
24158;DHT22;12316;50.904;4.200;2024-03-02T14:40:38;14.00;99.90
24158;DHT22;12316;50.904;4.200;2024-03-02T14:43:04;13.90;99.90
24158;DHT22;12316;50.904;4.200;2024-03-02T14:45:30;14.10;99.90
24158;DHT22;12316;50.904;4.200;2024-03-02T14:47:56;13.90;99.90
24158;DHT22;12316;50.904;4.200;2024-03-02T14:50:25;13.70;99.90
24158;DHT22;12316;50.904;4.200;2024-03-02T14:52:51;13.70;99.90
24158;DHT22;12316;50.904;4.200;2024-03-02T14:55:17;13.60;99.90
24158;DHT22;12316;50.904;4.200;2024-03-02T14:57:43;13.70;99.90
24158;DHT22;12316;50.904;4.200;2024-03-02T15:00:09;13.80;99.90
24158;DHT22;12316;50.904;4.200;2024-03-02T15:02:37;13.70;99.90
24158;DHT22;12316;50.904;4.200;2024-03-02T15:05:03;13.60;99.90
24158;DHT22;12316;50.904;4.200;2024-03-02T15:07:29;13.50;99.90
24158;DHT22;12316;50.904;4.200;2024-03-02T15:09:55;13.40;99.90
24158;DHT22;12316;50.904;4.200;2024-03-02T15:12:20;13.30;99.90
24158;DHT22;12316;50.904;4.200;2024-03-02T15:14:46;13.40;99.90
24158;DHT22;12316;50.904;4.200;2024-03-02T15:17:14;13.50;99.90
24158;DHT22;12316;50.904;4.200;2024-03-02T15:19:46;13.40;99.90
24158;DHT22;12316;50.904;4.200;2024-03-02T15:22:12;13.10;99.90
24158;DHT22;12316;50.904;4.200;2024-03-02T15:24:38;13.00;99.90
24158;DHT22;12316;50.904;4.200;2024-03-02T15:27:05;12.80;99.90
24158;DHT22;12316;50.904;4.200;2024-03-02T15:29:32;12.60;99.90
24158;DHT22;12316;50.904;4.200;2024-03-02T15:31:58;12.50;99.90
24158;DHT22;12316;50.904;4.200;2024-03-02T15:34:24;12.80;99.90
24158;DHT22;12316;50.904;4.200;2024-03-02T15:36:50;12.70;99.90
24158;DHT22;12316;50.904;4.200;2024-03-02T15:39:16;12.70;99.90
24158;DHT22;12316;50.904;4.200;2024-03-02T15:41:46;12.70;99.90
24158;DHT22;12316;50.904;4.200;2024-03-02T15:44:11;12.80;99.90
24158;DHT22;12316;50.904;4.200;2024-03-02T15:46:37;12.70;99.90